sensor_id;sensor_type;location;lat;lon;timestamp;P1;durP1;ratioP1;P2;durP2;ratioP2
67751;SDS011;54551;51.068;5.826;2023-04-03T00:00:30;8.07;;;5.80;;
67751;SDS011;54551;51.068;5.826;2023-04-03T00:02:57;6.67;;;5.70;;
67751;SDS011;54551;51.068;5.826;2023-04-03T00:05:23;7.37;;;6.10;;
67751;SDS011;54551;51.068;5.826;2023-04-03T00:07:49;11.43;;;5.83;;
67751;SDS011;54551;51.068;5.826;2023-04-03T00:10:15;9.27;;;5.93;;
67751;SDS011;54551;51.068;5.826;2023-04-03T00:12:41;9.90;;;6.23;;
67751;SDS011;54551;51.068;5.826;2023-04-03T00:15:07;7.13;;;5.83;;
67751;SDS011;54551;51.068;5.826;2023-04-03T00:17:34;5.50;;;5.03;;
67751;SDS011;54551;51.068;5.826;2023-04-03T00:20:00;11.10;;;6.37;;
67751;SDS011;54551;51.068;5.826;2023-04-03T00:22:26;6.20;;;5.60;;
67751;SDS011;54551;51.068;5.826;2023-04-03T00:24:54;8.23;;;6.33;;
67751;SDS011;54551;51.068;5.826;2023-04-03T00:27:20;7.07;;;6.37;;
67751;SDS011;54551;51.068;5.826;2023-04-03T00:29:46;7.93;;;6.53;;
67751;SDS011;54551;51.068;5.826;2023-04-03T00:32:12;7.37;;;6.40;;
67751;SDS011;54551;51.068;5.826;2023-04-03T00:34:39;7.80;;;6.90;;
67751;SDS011;54551;51.068;5.826;2023-04-03T00:37:05;7.50;;;5.97;;
67751;SDS011;54551;51.068;5.826;2023-04-03T00:39:31;9.87;;;6.93;;
67751;SDS011;54551;51.068;5.826;2023-04-03T00:41:57;11.00;;;6.20;;
67751;SDS011;54551;51.068;5.826;2023-04-03T00:46:58;9.37;;;7.37;;
67751;SDS011;54551;51.068;5.826;2023-04-03T00:49:24;8.27;;;6.57;;
67751;SDS011;54551;51.068;5.826;2023-04-03T00:51:51;9.43;;;6.80;;
67751;SDS011;54551;51.068;5.826;2023-04-03T00:54:20;9.67;;;6.67;;
67751;SDS011;54551;51.068;5.826;2023-04-03T00:56:47;8.17;;;6.63;;
67751;SDS011;54551;51.068;5.826;2023-04-03T00:59:16;8.50;;;6.67;;
67751;SDS011;54551;51.068;5.826;2023-04-03T01:01:48;8.63;;;6.70;;
67751;SDS011;54551;51.068;5.826;2023-04-03T01:07:16;9.87;;;7.57;;
67751;SDS011;54551;51.068;5.826;2023-04-03T01:09:48;8.70;;;7.70;;
67751;SDS011;54551;51.068;5.826;2023-04-03T01:12:19;9.97;;;6.63;;
67751;SDS011;54551;51.068;5.826;2023-04-03T01:14:48;8.23;;;6.60;;
67751;SDS011;54551;51.068;5.826;2023-04-03T01:17:29;8.00;;;7.17;;
67751;SDS011;54551;51.068;5.826;2023-04-03T01:22:52;10.70;;;8.27;;
67751;SDS011;54551;51.068;5.826;2023-04-03T01:25:21;10.23;;;8.27;;
67751;SDS011;54551;51.068;5.826;2023-04-03T01:27:48;11.10;;;8.07;;
67751;SDS011;54551;51.068;5.826;2023-04-03T01:30:14;8.90;;;8.00;;
67751;SDS011;54551;51.068;5.826;2023-04-03T01:32:43;11.23;;;8.47;;
67751;SDS011;54551;51.068;5.826;2023-04-03T01:35:11;8.37;;;7.63;;
67751;SDS011;54551;51.068;5.826;2023-04-03T01:37:38;9.40;;;7.83;;
67751;SDS011;54551;51.068;5.826;2023-04-03T01:40:04;9.13;;;8.23;;
67751;SDS011;54551;51.068;5.826;2023-04-03T01:42:31;10.17;;;8.17;;
67751;SDS011;54551;51.068;5.826;2023-04-03T01:44:57;9.33;;;8.37;;
67751;SDS011;54551;51.068;5.826;2023-04-03T01:47:23;9.43;;;8.57;;
67751;SDS011;54551;51.068;5.826;2023-04-03T01:49:49;9.20;;;8.40;;
67751;SDS011;54551;51.068;5.826;2023-04-03T01:52:15;9.80;;;8.37;;
67751;SDS011;54551;51.068;5.826;2023-04-03T01:54:41;10.33;;;8.83;;
67751;SDS011;54551;51.068;5.826;2023-04-03T01:57:07;10.10;;;8.60;;
67751;SDS011;54551;51.068;5.826;2023-04-03T01:59:34;9.53;;;8.63;;
67751;SDS011;54551;51.068;5.826;2023-04-03T02:02:00;10.57;;;8.67;;
67751;SDS011;54551;51.068;5.826;2023-04-03T02:04:26;10.27;;;9.27;;
67751;SDS011;54551;51.068;5.826;2023-04-03T02:06:52;10.63;;;8.87;;
67751;SDS011;54551;51.068;5.826;2023-04-03T02:09:18;10.03;;;8.93;;
67751;SDS011;54551;51.068;5.826;2023-04-03T02:11:44;10.53;;;8.70;;
67751;SDS011;54551;51.068;5.826;2023-04-03T02:14:10;9.17;;;8.37;;
67751;SDS011;54551;51.068;5.826;2023-04-03T02:16:37;10.30;;;8.50;;
67751;SDS011;54551;51.068;5.826;2023-04-03T02:19:03;9.73;;;8.73;;
67751;SDS011;54551;51.068;5.826;2023-04-03T02:21:29;10.37;;;9.27;;
67751;SDS011;54551;51.068;5.826;2023-04-03T02:23:55;10.60;;;8.73;;
67751;SDS011;54551;51.068;5.826;2023-04-03T02:26:22;10.67;;;9.50;;
67751;SDS011;54551;51.068;5.826;2023-04-03T02:28:48;11.20;;;9.40;;
67751;SDS011;54551;51.068;5.826;2023-04-03T02:31:14;10.63;;;9.20;;
67751;SDS011;54551;51.068;5.826;2023-04-03T02:33:42;10.20;;;9.17;;
67751;SDS011;54551;51.068;5.826;2023-04-03T02:36:10;14.07;;;9.97;;
67751;SDS011;54551;51.068;5.826;2023-04-03T02:38:38;12.53;;;9.93;;
67751;SDS011;54551;51.068;5.826;2023-04-03T02:41:08;10.30;;;9.30;;
67751;SDS011;54551;51.068;5.826;2023-04-03T02:43:36;11.57;;;8.93;;
67751;SDS011;54551;51.068;5.826;2023-04-03T02:46:04;9.77;;;8.37;;
67751;SDS011;54551;51.068;5.826;2023-04-03T02:48:31;11.47;;;9.23;;
67751;SDS011;54551;51.068;5.826;2023-04-03T02:50:58;10.87;;;8.87;;
67751;SDS011;54551;51.068;5.826;2023-04-03T02:53:24;11.57;;;9.80;;
67751;SDS011;54551;51.068;5.826;2023-04-03T02:55:50;10.27;;;9.17;;
67751;SDS011;54551;51.068;5.826;2023-04-03T02:58:16;10.33;;;9.33;;
67751;SDS011;54551;51.068;5.826;2023-04-03T03:00:42;10.50;;;9.40;;
67751;SDS011;54551;51.068;5.826;2023-04-03T03:03:08;12.07;;;9.30;;
67751;SDS011;54551;51.068;5.826;2023-04-03T03:05:34;10.23;;;9.17;;
67751;SDS011;54551;51.068;5.826;2023-04-03T03:08:01;9.73;;;8.70;;
67751;SDS011;54551;51.068;5.826;2023-04-03T03:10:27;10.87;;;9.07;;
67751;SDS011;54551;51.068;5.826;2023-04-03T03:12:53;11.80;;;9.47;;
67751;SDS011;54551;51.068;5.826;2023-04-03T03:15:19;9.90;;;8.90;;
67751;SDS011;54551;51.068;5.826;2023-04-03T03:17:45;10.50;;;9.40;;
67751;SDS011;54551;51.068;5.826;2023-04-03T03:20:11;11.30;;;9.50;;
67751;SDS011;54551;51.068;5.826;2023-04-03T03:22:39;10.57;;;9.50;;
67751;SDS011;54551;51.068;5.826;2023-04-03T03:25:06;12.90;;;9.57;;
67751;SDS011;54551;51.068;5.826;2023-04-03T03:27:32;11.23;;;10.13;;
67751;SDS011;54551;51.068;5.826;2023-04-03T03:29:58;11.27;;;9.87;;
67751;SDS011;54551;51.068;5.826;2023-04-03T03:32:24;12.50;;;10.37;;
67751;SDS011;54551;51.068;5.826;2023-04-03T03:34:50;10.90;;;9.90;;
67751;SDS011;54551;51.068;5.826;2023-04-03T03:37:16;11.43;;;9.40;;
67751;SDS011;54551;51.068;5.826;2023-04-03T03:39:42;11.77;;;10.20;;
67751;SDS011;54551;51.068;5.826;2023-04-03T03:42:08;13.13;;;10.03;;
67751;SDS011;54551;51.068;5.826;2023-04-03T03:44:34;15.27;;;10.37;;
67751;SDS011;54551;51.068;5.826;2023-04-03T03:47:00;10.43;;;9.33;;
67751;SDS011;54551;51.068;5.826;2023-04-03T03:49:28;12.07;;;9.70;;
67751;SDS011;54551;51.068;5.826;2023-04-03T03:51:54;13.67;;;11.20;;
67751;SDS011;54551;51.068;5.826;2023-04-03T03:54:21;9.87;;;8.83;;
67751;SDS011;54551;51.068;5.826;2023-04-03T03:56:47;15.23;;;10.30;;
67751;SDS011;54551;51.068;5.826;2023-04-03T03:59:13;14.07;;;10.47;;
67751;SDS011;54551;51.068;5.826;2023-04-03T04:01:40;12.80;;;10.20;;
67751;SDS011;54551;51.068;5.826;2023-04-03T04:04:07;13.33;;;9.80;;
67751;SDS011;54551;51.068;5.826;2023-04-03T04:06:33;13.40;;;10.20;;
67751;SDS011;54551;51.068;5.826;2023-04-03T04:09:03;12.47;;;10.47;;
67751;SDS011;54551;51.068;5.826;2023-04-03T04:11:29;13.27;;;10.07;;
67751;SDS011;54551;51.068;5.826;2023-04-03T04:13:56;10.00;;;9.00;;
67751;SDS011;54551;51.068;5.826;2023-04-03T04:16:25;12.83;;;10.70;;
67751;SDS011;54551;51.068;5.826;2023-04-03T04:18:51;12.77;;;9.97;;
67751;SDS011;54551;51.068;5.826;2023-04-03T04:21:18;11.40;;;10.17;;
67751;SDS011;54551;51.068;5.826;2023-04-03T04:23:45;12.07;;;10.80;;
67751;SDS011;54551;51.068;5.826;2023-04-03T04:26:12;12.83;;;11.40;;
67751;SDS011;54551;51.068;5.826;2023-04-03T04:28:39;15.10;;;12.90;;
67751;SDS011;54551;51.068;5.826;2023-04-03T04:31:05;17.80;;;12.43;;
67751;SDS011;54551;51.068;5.826;2023-04-03T04:33:32;18.33;;;13.33;;
67751;SDS011;54551;51.068;5.826;2023-04-03T04:36:00;16.83;;;12.27;;
67751;SDS011;54551;51.068;5.826;2023-04-03T04:38:27;14.90;;;12.37;;
67751;SDS011;54551;51.068;5.826;2023-04-03T04:40:53;13.10;;;11.70;;
67751;SDS011;54551;51.068;5.826;2023-04-03T04:43:20;14.40;;;11.40;;
67751;SDS011;54551;51.068;5.826;2023-04-03T04:45:57;14.10;;;11.70;;
67751;SDS011;54551;51.068;5.826;2023-04-03T04:48:33;14.60;;;11.53;;
67751;SDS011;54551;51.068;5.826;2023-04-03T04:51:01;13.03;;;11.60;;
67751;SDS011;54551;51.068;5.826;2023-04-03T04:53:27;14.60;;;11.63;;
67751;SDS011;54551;51.068;5.826;2023-04-03T04:55:53;15.37;;;11.40;;
67751;SDS011;54551;51.068;5.826;2023-04-03T04:58:20;14.57;;;12.67;;
67751;SDS011;54551;51.068;5.826;2023-04-03T05:00:46;16.40;;;11.57;;
67751;SDS011;54551;51.068;5.826;2023-04-03T05:03:12;13.67;;;10.87;;
67751;SDS011;54551;51.068;5.826;2023-04-03T05:05:39;13.07;;;11.53;;
67751;SDS011;54551;51.068;5.826;2023-04-03T05:08:05;16.37;;;10.90;;
67751;SDS011;54551;51.068;5.826;2023-04-03T05:10:33;11.37;;;10.17;;
67751;SDS011;54551;51.068;5.826;2023-04-03T05:13:00;11.60;;;10.40;;
67751;SDS011;54551;51.068;5.826;2023-04-03T05:15:26;13.60;;;10.70;;
67751;SDS011;54551;51.068;5.826;2023-04-03T05:17:52;14.07;;;10.70;;
67751;SDS011;54551;51.068;5.826;2023-04-03T05:20:18;14.17;;;10.93;;
67751;SDS011;54551;51.068;5.826;2023-04-03T05:22:45;13.27;;;9.80;;
67751;SDS011;54551;51.068;5.826;2023-04-03T05:25:12;11.20;;;9.40;;
67751;SDS011;54551;51.068;5.826;2023-04-03T05:27:41;11.47;;;9.23;;
67751;SDS011;54551;51.068;5.826;2023-04-03T05:30:07;9.33;;;8.20;;
67751;SDS011;54551;51.068;5.826;2023-04-03T05:32:35;11.77;;;8.80;;
67751;SDS011;54551;51.068;5.826;2023-04-03T05:35:16;10.23;;;7.53;;
67751;SDS011;54551;51.068;5.826;2023-04-03T05:37:43;9.37;;;7.07;;
67751;SDS011;54551;51.068;5.826;2023-04-03T05:40:10;9.93;;;6.43;;
67751;SDS011;54551;51.068;5.826;2023-04-03T05:42:39;8.70;;;6.47;;
67751;SDS011;54551;51.068;5.826;2023-04-03T05:45:06;8.27;;;6.37;;
67751;SDS011;54551;51.068;5.826;2023-04-03T05:47:32;7.43;;;5.80;;
67751;SDS011;54551;51.068;5.826;2023-04-03T05:49:58;7.37;;;6.40;;
67751;SDS011;54551;51.068;5.826;2023-04-03T05:54:53;12.43;;;6.47;;
67751;SDS011;54551;51.068;5.826;2023-04-03T05:57:24;9.50;;;6.07;;
67751;SDS011;54551;51.068;5.826;2023-04-03T05:59:50;7.93;;;5.40;;
67751;SDS011;54551;51.068;5.826;2023-04-03T06:02:17;6.70;;;5.00;;
67751;SDS011;54551;51.068;5.826;2023-04-03T06:04:46;6.13;;;5.00;;
67751;SDS011;54551;51.068;5.826;2023-04-03T06:07:14;5.97;;;5.03;;
67751;SDS011;54551;51.068;5.826;2023-04-03T06:09:49;7.53;;;4.70;;
67751;SDS011;54551;51.068;5.826;2023-04-03T06:12:16;12.50;;;5.97;;
67751;SDS011;54551;51.068;5.826;2023-04-03T06:14:43;5.57;;;4.60;;
67751;SDS011;54551;51.068;5.826;2023-04-03T06:17:09;9.77;;;4.90;;
67751;SDS011;54551;51.068;5.826;2023-04-03T06:19:37;9.00;;;5.27;;
67751;SDS011;54551;51.068;5.826;2023-04-03T06:22:03;11.50;;;4.83;;
67751;SDS011;54551;51.068;5.826;2023-04-03T06:24:30;8.63;;;5.53;;
67751;SDS011;54551;51.068;5.826;2023-04-03T06:26:56;7.73;;;5.03;;
67751;SDS011;54551;51.068;5.826;2023-04-03T06:29:22;9.30;;;5.10;;
67751;SDS011;54551;51.068;5.826;2023-04-03T06:31:48;8.50;;;4.80;;
67751;SDS011;54551;51.068;5.826;2023-04-03T06:34:15;8.63;;;4.53;;
67751;SDS011;54551;51.068;5.826;2023-04-03T06:36:42;7.70;;;4.50;;
67751;SDS011;54551;51.068;5.826;2023-04-03T06:39:09;8.30;;;4.60;;
67751;SDS011;54551;51.068;5.826;2023-04-03T06:41:48;10.83;;;4.87;;
67751;SDS011;54551;51.068;5.826;2023-04-03T06:44:17;6.57;;;4.50;;
67751;SDS011;54551;51.068;5.826;2023-04-03T06:46:43;6.13;;;3.97;;
67751;SDS011;54551;51.068;5.826;2023-04-03T06:49:11;7.13;;;4.60;;
67751;SDS011;54551;51.068;5.826;2023-04-03T06:51:37;5.77;;;4.17;;
67751;SDS011;54551;51.068;5.826;2023-04-03T06:54:04;6.47;;;4.20;;
67751;SDS011;54551;51.068;5.826;2023-04-03T06:56:31;9.20;;;4.00;;
67751;SDS011;54551;51.068;5.826;2023-04-03T06:58:57;7.30;;;4.13;;
67751;SDS011;54551;51.068;5.826;2023-04-03T07:01:23;6.30;;;3.87;;
67751;SDS011;54551;51.068;5.826;2023-04-03T07:03:52;6.90;;;4.47;;
67751;SDS011;54551;51.068;5.826;2023-04-03T07:06:20;8.67;;;3.53;;
67751;SDS011;54551;51.068;5.826;2023-04-03T07:08:46;8.53;;;4.80;;
67751;SDS011;54551;51.068;5.826;2023-04-03T07:11:13;8.50;;;3.97;;
67751;SDS011;54551;51.068;5.826;2023-04-03T07:13:40;6.60;;;4.37;;
67751;SDS011;54551;51.068;5.826;2023-04-03T07:16:06;7.57;;;4.70;;
67751;SDS011;54551;51.068;5.826;2023-04-03T07:18:33;7.20;;;4.13;;
67751;SDS011;54551;51.068;5.826;2023-04-03T07:21:00;7.83;;;4.23;;
67751;SDS011;54551;51.068;5.826;2023-04-03T07:23:26;5.97;;;3.83;;
67751;SDS011;54551;51.068;5.826;2023-04-03T07:25:52;8.27;;;4.43;;
67751;SDS011;54551;51.068;5.826;2023-04-03T07:28:19;6.20;;;3.90;;
67751;SDS011;54551;51.068;5.826;2023-04-03T07:30:50;8.23;;;4.00;;
67751;SDS011;54551;51.068;5.826;2023-04-03T07:33:19;9.53;;;4.03;;
67751;SDS011;54551;51.068;5.826;2023-04-03T07:35:46;8.37;;;3.80;;
67751;SDS011;54551;51.068;5.826;2023-04-03T07:38:12;5.03;;;3.43;;
67751;SDS011;54551;51.068;5.826;2023-04-03T07:40:38;7.43;;;3.57;;
67751;SDS011;54551;51.068;5.826;2023-04-03T07:43:05;5.50;;;3.77;;
67751;SDS011;54551;51.068;5.826;2023-04-03T07:45:32;6.90;;;3.63;;
67751;SDS011;54551;51.068;5.826;2023-04-03T07:48:00;4.63;;;2.93;;
67751;SDS011;54551;51.068;5.826;2023-04-03T07:50:27;4.73;;;3.60;;
67751;SDS011;54551;51.068;5.826;2023-04-03T07:52:53;4.33;;;2.87;;
67751;SDS011;54551;51.068;5.826;2023-04-03T07:55:21;6.00;;;3.40;;
67751;SDS011;54551;51.068;5.826;2023-04-03T07:57:47;4.67;;;3.00;;
67751;SDS011;54551;51.068;5.826;2023-04-03T08:00:13;8.10;;;3.13;;
67751;SDS011;54551;51.068;5.826;2023-04-03T08:02:40;6.97;;;3.40;;
67751;SDS011;54551;51.068;5.826;2023-04-03T08:05:06;5.40;;;2.90;;
67751;SDS011;54551;51.068;5.826;2023-04-03T08:07:32;6.43;;;3.17;;
67751;SDS011;54551;51.068;5.826;2023-04-03T08:09:58;4.87;;;2.50;;
67751;SDS011;54551;51.068;5.826;2023-04-03T08:12:24;5.37;;;2.73;;
67751;SDS011;54551;51.068;5.826;2023-04-03T08:14:50;7.30;;;3.10;;
67751;SDS011;54551;51.068;5.826;2023-04-03T08:17:16;4.70;;;2.63;;
67751;SDS011;54551;51.068;5.826;2023-04-03T08:19:42;7.03;;;2.80;;
67751;SDS011;54551;51.068;5.826;2023-04-03T08:22:08;5.87;;;2.90;;
67751;SDS011;54551;51.068;5.826;2023-04-03T08:24:34;4.30;;;2.17;;
67751;SDS011;54551;51.068;5.826;2023-04-03T08:27:00;6.30;;;2.80;;
67751;SDS011;54551;51.068;5.826;2023-04-03T08:29:26;4.40;;;2.53;;
67751;SDS011;54551;51.068;5.826;2023-04-03T08:31:52;5.53;;;2.63;;
67751;SDS011;54551;51.068;5.826;2023-04-03T08:34:19;8.27;;;2.90;;
67751;SDS011;54551;51.068;5.826;2023-04-03T08:36:45;4.70;;;2.57;;
67751;SDS011;54551;51.068;5.826;2023-04-03T08:39:11;5.60;;;3.10;;
67751;SDS011;54551;51.068;5.826;2023-04-03T08:41:38;6.90;;;2.90;;
67751;SDS011;54551;51.068;5.826;2023-04-03T08:49:39;4.90;;;2.77;;
67751;SDS011;54551;51.068;5.826;2023-04-03T08:52:13;4.33;;;2.73;;
67751;SDS011;54551;51.068;5.826;2023-04-03T08:57:29;3.00;;;1.57;;
67751;SDS011;54551;51.068;5.826;2023-04-03T09:00:01;3.13;;;1.83;;
67751;SDS011;54551;51.068;5.826;2023-04-03T09:02:46;3.90;;;1.43;;
67751;SDS011;54551;51.068;5.826;2023-04-03T09:05:16;4.73;;;2.23;;
67751;SDS011;54551;51.068;5.826;2023-04-03T09:07:57;3.33;;;1.70;;
67751;SDS011;54551;51.068;5.826;2023-04-03T09:10:39;1.83;;;1.33;;
67751;SDS011;54551;51.068;5.826;2023-04-03T09:16:11;3.03;;;1.27;;
67751;SDS011;54551;51.068;5.826;2023-04-03T09:21:41;7.03;;;2.40;;
67751;SDS011;54551;51.068;5.826;2023-04-03T09:24:07;4.13;;;2.20;;
67751;SDS011;54551;51.068;5.826;2023-04-03T09:29:20;3.93;;;1.70;;
67751;SDS011;54551;51.068;5.826;2023-04-03T09:31:48;4.83;;;1.80;;
67751;SDS011;54551;51.068;5.826;2023-04-03T09:34:26;3.87;;;1.30;;
67751;SDS011;54551;51.068;5.826;2023-04-03T09:36:56;4.50;;;1.70;;
67751;SDS011;54551;51.068;5.826;2023-04-03T09:39:28;2.67;;;1.27;;
67751;SDS011;54551;51.068;5.826;2023-04-03T09:42:05;2.00;;;1.33;;
67751;SDS011;54551;51.068;5.826;2023-04-03T09:44:44;2.73;;;1.40;;
67751;SDS011;54551;51.068;5.826;2023-04-03T09:47:27;2.17;;;1.33;;
67751;SDS011;54551;51.068;5.826;2023-04-03T09:52:40;3.57;;;1.20;;
67751;SDS011;54551;51.068;5.826;2023-04-03T09:55:10;1.83;;;1.07;;
67751;SDS011;54551;51.068;5.826;2023-04-03T09:57:52;4.10;;;1.10;;
67751;SDS011;54551;51.068;5.826;2023-04-03T10:00:21;1.17;;;0.83;;
67751;SDS011;54551;51.068;5.826;2023-04-03T10:02:54;2.70;;;0.83;;
67751;SDS011;54551;51.068;5.826;2023-04-03T10:10:39;2.40;;;1.17;;
67751;SDS011;54551;51.068;5.826;2023-04-03T10:13:14;1.30;;;0.87;;
67751;SDS011;54551;51.068;5.826;2023-04-03T10:15:44;2.17;;;0.90;;
67751;SDS011;54551;51.068;5.826;2023-04-03T10:18:27;2.10;;;1.10;;
67751;SDS011;54551;51.068;5.826;2023-04-03T10:21:15;2.30;;;1.07;;
67751;SDS011;54551;51.068;5.826;2023-04-03T10:23:57;2.20;;;1.43;;
67751;SDS011;54551;51.068;5.826;2023-04-03T10:29:15;1.67;;;1.00;;
67751;SDS011;54551;51.068;5.826;2023-04-03T10:32:06;1.93;;;1.17;;
67751;SDS011;54551;51.068;5.826;2023-04-03T10:35:08;3.80;;;1.50;;
67751;SDS011;54551;51.068;5.826;2023-04-03T10:40:27;2.60;;;0.97;;
67751;SDS011;54551;51.068;5.826;2023-04-03T10:51:28;3.47;;;1.90;;
67751;SDS011;54551;51.068;5.826;2023-04-03T10:56:40;2.63;;;1.57;;
67751;SDS011;54551;51.068;5.826;2023-04-03T11:01:44;2.47;;;1.47;;
67751;SDS011;54551;51.068;5.826;2023-04-03T11:04:14;1.40;;;0.97;;
67751;SDS011;54551;51.068;5.826;2023-04-03T11:14:40;3.47;;;1.40;;
67751;SDS011;54551;51.068;5.826;2023-04-03T11:22:27;1.27;;;1.10;;
67751;SDS011;54551;51.068;5.826;2023-04-03T11:30:19;1.93;;;1.20;;
67751;SDS011;54551;51.068;5.826;2023-04-03T11:35:54;4.30;;;1.70;;
67751;SDS011;54551;51.068;5.826;2023-04-03T11:38:25;3.10;;;1.60;;
67751;SDS011;54551;51.068;5.826;2023-04-03T11:40:55;3.93;;;1.30;;
67751;SDS011;54551;51.068;5.826;2023-04-03T11:46:06;2.87;;;1.70;;
67751;SDS011;54551;51.068;5.826;2023-04-03T11:51:00;3.03;;;1.80;;
67751;SDS011;54551;51.068;5.826;2023-04-03T11:53:46;2.03;;;1.53;;
67751;SDS011;54551;51.068;5.826;2023-04-03T12:04:19;3.00;;;1.53;;
67751;SDS011;54551;51.068;5.826;2023-04-03T12:11:49;2.57;;;1.73;;
67751;SDS011;54551;51.068;5.826;2023-04-03T12:14:16;3.80;;;1.77;;
67751;SDS011;54551;51.068;5.826;2023-04-03T12:16:43;2.67;;;1.73;;
67751;SDS011;54551;51.068;5.826;2023-04-03T12:26:46;5.53;;;2.30;;
67751;SDS011;54551;51.068;5.826;2023-04-03T12:29:33;3.33;;;1.70;;
67751;SDS011;54551;51.068;5.826;2023-04-03T12:35:00;3.77;;;1.93;;
67751;SDS011;54551;51.068;5.826;2023-04-03T12:40:19;3.90;;;2.13;;
67751;SDS011;54551;51.068;5.826;2023-04-03T12:45:40;4.37;;;2.07;;
67751;SDS011;54551;51.068;5.826;2023-04-03T12:48:16;4.73;;;2.20;;
67751;SDS011;54551;51.068;5.826;2023-04-03T12:50:47;2.87;;;1.90;;
67751;SDS011;54551;51.068;5.826;2023-04-03T12:53:16;3.87;;;1.80;;
67751;SDS011;54551;51.068;5.826;2023-04-03T12:55:46;3.73;;;1.90;;
67751;SDS011;54551;51.068;5.826;2023-04-03T13:01:02;4.40;;;1.80;;
67751;SDS011;54551;51.068;5.826;2023-04-03T13:03:29;4.00;;;2.20;;
67751;SDS011;54551;51.068;5.826;2023-04-03T13:05:57;5.93;;;2.00;;
67751;SDS011;54551;51.068;5.826;2023-04-03T13:08:25;3.93;;;1.70;;
67751;SDS011;54551;51.068;5.826;2023-04-03T13:10:56;1.60;;;1.50;;
67751;SDS011;54551;51.068;5.826;2023-04-03T13:13:28;4.53;;;1.80;;
67751;SDS011;54551;51.068;5.826;2023-04-03T13:15:54;2.77;;;1.50;;
67751;SDS011;54551;51.068;5.826;2023-04-03T13:18:26;3.50;;;1.70;;
67751;SDS011;54551;51.068;5.826;2023-04-03T13:21:01;2.17;;;1.83;;
67751;SDS011;54551;51.068;5.826;2023-04-03T13:23:28;3.30;;;1.70;;
67751;SDS011;54551;51.068;5.826;2023-04-03T13:25:56;4.87;;;1.90;;
67751;SDS011;54551;51.068;5.826;2023-04-03T13:28:26;5.13;;;1.93;;
67751;SDS011;54551;51.068;5.826;2023-04-03T13:30:57;3.17;;;1.90;;
67751;SDS011;54551;51.068;5.826;2023-04-03T13:33:31;4.60;;;1.63;;
67751;SDS011;54551;51.068;5.826;2023-04-03T13:36:19;3.73;;;1.90;;
67751;SDS011;54551;51.068;5.826;2023-04-03T13:38:57;7.73;;;1.83;;
67751;SDS011;54551;51.068;5.826;2023-04-03T13:41:50;2.73;;;1.77;;
67751;SDS011;54551;51.068;5.826;2023-04-03T13:46:47;6.03;;;1.90;;
67751;SDS011;54551;51.068;5.826;2023-04-03T13:51:56;3.77;;;2.00;;
67751;SDS011;54551;51.068;5.826;2023-04-03T13:54:24;2.13;;;1.50;;
67751;SDS011;54551;51.068;5.826;2023-04-03T13:56:56;2.23;;;1.40;;
67751;SDS011;54551;51.068;5.826;2023-04-03T13:59:24;1.93;;;1.13;;
67751;SDS011;54551;51.068;5.826;2023-04-03T14:06:57;1.40;;;1.30;;
67751;SDS011;54551;51.068;5.826;2023-04-03T14:09:25;3.93;;;1.33;;
67751;SDS011;54551;51.068;5.826;2023-04-03T14:11:54;3.83;;;1.77;;
67751;SDS011;54551;51.068;5.826;2023-04-03T14:14:32;4.37;;;1.73;;
67751;SDS011;54551;51.068;5.826;2023-04-03T14:17:01;2.70;;;1.40;;
67751;SDS011;54551;51.068;5.826;2023-04-03T14:19:35;4.67;;;2.10;;
67751;SDS011;54551;51.068;5.826;2023-04-03T14:22:07;3.70;;;1.70;;
67751;SDS011;54551;51.068;5.826;2023-04-03T14:24:45;3.50;;;1.60;;
67751;SDS011;54551;51.068;5.826;2023-04-03T14:27:16;2.40;;;1.60;;
67751;SDS011;54551;51.068;5.826;2023-04-03T14:29:46;2.60;;;1.80;;
67751;SDS011;54551;51.068;5.826;2023-04-03T14:32:13;2.37;;;1.30;;
67751;SDS011;54551;51.068;5.826;2023-04-03T14:34:40;3.07;;;1.70;;
67751;SDS011;54551;51.068;5.826;2023-04-03T14:37:12;5.43;;;1.90;;
67751;SDS011;54551;51.068;5.826;2023-04-03T14:39:40;4.20;;;2.00;;
67751;SDS011;54551;51.068;5.826;2023-04-03T14:42:09;4.20;;;1.70;;
67751;SDS011;54551;51.068;5.826;2023-04-03T14:44:38;2.57;;;1.40;;
67751;SDS011;54551;51.068;5.826;2023-04-03T14:47:04;3.53;;;1.63;;
67751;SDS011;54551;51.068;5.826;2023-04-03T14:49:30;4.07;;;1.33;;
67751;SDS011;54551;51.068;5.826;2023-04-03T14:51:57;2.90;;;1.40;;
67751;SDS011;54551;51.068;5.826;2023-04-03T14:54:23;3.43;;;1.87;;
67751;SDS011;54551;51.068;5.826;2023-04-03T14:56:54;3.33;;;1.63;;
67751;SDS011;54551;51.068;5.826;2023-04-03T14:59:22;6.67;;;4.40;;
67751;SDS011;54551;51.068;5.826;2023-04-03T15:01:48;4.80;;;2.00;;
67751;SDS011;54551;51.068;5.826;2023-04-03T15:04:18;3.27;;;1.63;;
67751;SDS011;54551;51.068;5.826;2023-04-03T15:06:45;2.07;;;1.63;;
67751;SDS011;54551;51.068;5.826;2023-04-03T15:11:45;3.50;;;1.47;;
67751;SDS011;54551;51.068;5.826;2023-04-03T15:14:12;2.27;;;1.67;;
67751;SDS011;54551;51.068;5.826;2023-04-03T15:16:38;2.50;;;1.50;;
67751;SDS011;54551;51.068;5.826;2023-04-03T15:19:04;2.97;;;1.47;;
67751;SDS011;54551;51.068;5.826;2023-04-03T15:21:30;3.37;;;1.53;;
67751;SDS011;54551;51.068;5.826;2023-04-03T15:23:56;5.07;;;1.60;;
67751;SDS011;54551;51.068;5.826;2023-04-03T15:26:22;2.40;;;1.70;;
67751;SDS011;54551;51.068;5.826;2023-04-03T15:28:49;3.60;;;1.50;;
67751;SDS011;54551;51.068;5.826;2023-04-03T15:31:15;2.80;;;1.20;;
67751;SDS011;54551;51.068;5.826;2023-04-03T15:33:41;3.80;;;1.67;;
67751;SDS011;54551;51.068;5.826;2023-04-03T15:36:07;3.73;;;1.50;;
67751;SDS011;54551;51.068;5.826;2023-04-03T15:38:33;3.47;;;1.77;;
67751;SDS011;54551;51.068;5.826;2023-04-03T15:40:59;4.40;;;1.70;;
67751;SDS011;54551;51.068;5.826;2023-04-03T15:43:25;1.57;;;1.30;;
67751;SDS011;54551;51.068;5.826;2023-04-03T15:45:51;4.70;;;1.60;;
67751;SDS011;54551;51.068;5.826;2023-04-03T15:48:17;2.77;;;1.60;;
67751;SDS011;54551;51.068;5.826;2023-04-03T15:50:44;3.93;;;1.97;;
67751;SDS011;54551;51.068;5.826;2023-04-03T15:53:10;2.80;;;1.40;;
67751;SDS011;54551;51.068;5.826;2023-04-03T15:55:36;2.47;;;1.73;;
67751;SDS011;54551;51.068;5.826;2023-04-03T15:58:03;3.07;;;1.53;;
67751;SDS011;54551;51.068;5.826;2023-04-03T16:00:30;2.20;;;1.57;;
67751;SDS011;54551;51.068;5.826;2023-04-03T16:02:59;2.57;;;1.70;;
67751;SDS011;54551;51.068;5.826;2023-04-03T16:05:47;3.37;;;1.77;;
67751;SDS011;54551;51.068;5.826;2023-04-03T16:08:13;6.03;;;1.73;;
67751;SDS011;54551;51.068;5.826;2023-04-03T16:10:39;3.10;;;1.60;;
67751;SDS011;54551;51.068;5.826;2023-04-03T16:13:06;3.37;;;1.60;;
67751;SDS011;54551;51.068;5.826;2023-04-03T16:15:32;4.57;;;1.60;;
67751;SDS011;54551;51.068;5.826;2023-04-03T16:18:00;3.03;;;1.37;;
67751;SDS011;54551;51.068;5.826;2023-04-03T16:20:26;2.17;;;1.40;;
67751;SDS011;54551;51.068;5.826;2023-04-03T16:22:52;2.70;;;1.63;;
67751;SDS011;54551;51.068;5.826;2023-04-03T16:25:18;4.17;;;1.73;;
67751;SDS011;54551;51.068;5.826;2023-04-03T16:27:45;1.93;;;1.57;;
67751;SDS011;54551;51.068;5.826;2023-04-03T16:30:11;2.70;;;1.20;;
67751;SDS011;54551;51.068;5.826;2023-04-03T16:32:37;2.90;;;1.63;;
67751;SDS011;54551;51.068;5.826;2023-04-03T16:35:05;3.20;;;1.60;;
67751;SDS011;54551;51.068;5.826;2023-04-03T16:37:31;2.50;;;1.57;;
67751;SDS011;54551;51.068;5.826;2023-04-03T16:39:57;3.10;;;1.60;;
67751;SDS011;54551;51.068;5.826;2023-04-03T16:42:24;1.93;;;1.50;;
67751;SDS011;54551;51.068;5.826;2023-04-03T16:44:50;3.13;;;1.60;;
67751;SDS011;54551;51.068;5.826;2023-04-03T16:47:16;4.33;;;1.80;;
67751;SDS011;54551;51.068;5.826;2023-04-03T16:49:44;2.10;;;1.60;;
67751;SDS011;54551;51.068;5.826;2023-04-03T16:52:11;3.47;;;1.57;;
67751;SDS011;54551;51.068;5.826;2023-04-03T16:54:38;4.30;;;1.83;;
67751;SDS011;54551;51.068;5.826;2023-04-03T16:57:04;4.37;;;1.90;;